North Salt Lake
Center St & Main St, North Salt Lake
Last Weather Update:10/31/2011 10:00:00 PM
Date
ETo
ETc
Rain
Irrigation
Req
Temp
Max
Temp
Min
Temp
Avg
Avg RH
Avg Wind
Avg Solar
inches
inches
incehs
inches
F
F
F
%
%
watts/m2
9/1/2011 0.19" 0.13" 0.00" 0.13" 81.5° 58.4° 69.8° 69.1% 2.5 MPH 275.7w/m2
9/2/2011 0.18" 0.13" 0.00" 0.13" 78.2° 54.2° 67.4° 31.8% 3.0 MPH 266.2w/m2
9/3/2011 0.18" 0.12" 0.00" 0.12" 82.2° 51.7° 67.6° 45.6% 2.1 MPH 267.4w/m2
9/4/2011 0.18" 0.12" 0.00" 0.12" 85.7° 53.9° 69.8° 47.1% 2.0 MPH 265.8w/m2
9/5/2011 0.13" 0.09" 0.00" 0.09" 80.8° 60.0° 70.4° 48.0% 3.2 MPH 146.3w/m2
9/6/2011 0.16" 0.11" 0.00" 0.11" 77.9° 58.2° 69.3° 42.2% 3.3 MPH 206.7w/m2
9/7/2011 0.19" 0.13" 0.00" 0.13" 80.9° 56.1° 70.1° 39.5% 3.6 MPH 249.6w/m2
9/8/2011 0.18" 0.12" 0.00" 0.12" 80.6° 60.3° 71.0° 50.4% 3.2 MPH 243.3w/m2
9/9/2011 0.17" 0.12" 0.00" 0.12" 84.3° 59.2° 71.2° 50.6% 2.9 MPH 220.5w/m2
9/10/2011 0.14" 0.10" 0.08" 0.03" 80.7° 57.6° 67.7° 67.3% 2.6 MPH 186.8w/m2
9/11/2011 0.17" 0.11" 0.00" 0.11" 79.1° 56.7° 68.1° 53.8% 4.4 MPH 194.4w/m2
9/12/2011 0.16" 0.10" 0.00" 0.10" 78.7° 57.0° 67.4° 48.6% 2.8 MPH 214.4w/m2
9/13/2011 0.16" 0.11" 0.00" 0.11" 79.0° 54.5° 67.5° 46.1% 2.1 MPH 240.9w/m2
9/14/2011 0.15" 0.10" 0.00" 0.10" 79.7° 55.5° 67.4° 58.9% 2.7 MPH 218.0w/m2
9/15/2011 0.16" 0.10" 0.00" 0.10" 77.6° 55.6° 67.9° 47.5% 2.8 MPH 227.3w/m2
9/16/2011 0.10" 0.07" 0.09" -0.01" 71.7° 56.3° 64.1° 74.6% 4.8 MPH 115.7w/m2
9/17/2011 0.12" 0.08" 0.03" 0.05" 71.1° 53.7° 61.6° 55.0% 2.4 MPH 186.8w/m2
9/18/2011 0.14" 0.09" 0.00" 0.09" 74.9° 49.8° 62.7° 55.8% 1.6 MPH 235.8w/m2
9/19/2011 0.16" 0.10" 0.00" 0.10" 80.2° 51.2° 66.4° 45.8% 2.2 MPH 234.5w/m2
9/20/2011 0.15" 0.09" 0.00" 0.09" 75.8° 52.0° 65.0° 43.2% 2.1 MPH 229.4w/m2
9/21/2011 0.15" 0.09" 0.00" 0.09" 78.8° 50.9° 64.7° 48.5% 2.1 MPH 232.9w/m2
9/22/2011 0.15" 0.09" 0.00" 0.09" 79.9° 50.6° 65.0° 46.7% 1.9 MPH 231.5w/m2
9/23/2011 0.15" 0.09" 0.00" 0.09" 82.9° 51.2° 66.5° 34.2% 2.0 MPH 231.6w/m2
9/24/2011 0.13" 0.08" 0.00" 0.08" 82.2° 52.2° 66.6° 41.2% 1.5 MPH 200.9w/m2
9/25/2011 0.16" 0.10" 0.00" 0.10" 83.8° 53.1° 69.0° 21.6% 2.5 MPH 225.1w/m2
9/26/2011 0.16" 0.10" 0.00" 0.10" 78.4° 59.3° 69.9° 51.0% 3.4 MPH 215.0w/m2
9/27/2011 0.14" 0.09" 0.00" 0.09" 82.2° 52.3° 67.6° 43.7% 1.8 MPH 215.4w/m2
9/28/2011 0.15" 0.09" 0.00" 0.09" 83.5° 54.8° 68.7° 49.7% 2.1 MPH 216.5w/m2
9/29/2011 0.14" 0.09" 0.00" 0.09" 83.4° 53.9° 68.0° 53.0% 1.9 MPH 216.8w/m2
9/30/2011 0.15" 0.09" 0.00" 0.09" 88.1° 54.6° 71.8° 37.1% 2.4 MPH 209.7w/m2
Totals: 4.65" 3.02" 0.20" 2.86" 88.1° 49.8° 67.7° 48.3% 2.6 MPH 220.7w/m2